sensor_id;sensor_type;location;lat;lon;timestamp;P1;durP1;ratioP1;P2;durP2;ratioP2
42098;SDS011;27758;55.900;8.516;2023-04-16T00:02:11;25.77;;;17.65;;
42098;SDS011;27758;55.900;8.516;2023-04-16T00:04:36;21.48;;;16.90;;
42098;SDS011;27758;55.900;8.516;2023-04-16T00:07:02;23.08;;;17.98;;
42098;SDS011;27758;55.900;8.516;2023-04-16T00:09:28;25.02;;;17.92;;
42098;SDS011;27758;55.900;8.516;2023-04-16T00:11:53;21.65;;;17.35;;
42098;SDS011;27758;55.900;8.516;2023-04-16T00:14:20;25.88;;;17.67;;
42098;SDS011;27758;55.900;8.516;2023-04-16T00:16:46;20.88;;;17.20;;
42098;SDS011;27758;55.900;8.516;2023-04-16T00:19:12;24.90;;;18.63;;
42098;SDS011;27758;55.900;8.516;2023-04-16T00:21:37;23.15;;;16.92;;
42098;SDS011;27758;55.900;8.516;2023-04-16T00:24:03;23.45;;;18.05;;
42098;SDS011;27758;55.900;8.516;2023-04-16T00:26:29;28.05;;;19.95;;
42098;SDS011;27758;55.900;8.516;2023-04-16T00:28:55;24.10;;;18.48;;
42098;SDS011;27758;55.900;8.516;2023-04-16T00:31:27;20.63;;;16.70;;
42098;SDS011;27758;55.900;8.516;2023-04-16T00:33:54;26.52;;;18.73;;
42098;SDS011;27758;55.900;8.516;2023-04-16T00:36:21;25.73;;;18.75;;
42098;SDS011;27758;55.900;8.516;2023-04-16T00:38:47;26.13;;;17.60;;
42098;SDS011;27758;55.900;8.516;2023-04-16T00:41:13;24.08;;;19.42;;
42098;SDS011;27758;55.900;8.516;2023-04-16T00:43:39;24.75;;;18.58;;
42098;SDS011;27758;55.900;8.516;2023-04-16T00:46:04;23.45;;;18.42;;
42098;SDS011;27758;55.900;8.516;2023-04-16T00:48:31;25.92;;;18.05;;
42098;SDS011;27758;55.900;8.516;2023-04-16T00:50:58;25.90;;;18.48;;
42098;SDS011;27758;55.900;8.516;2023-04-16T00:53:25;29.33;;;19.85;;
42098;SDS011;27758;55.900;8.516;2023-04-16T00:55:51;27.42;;;20.45;;
42098;SDS011;27758;55.900;8.516;2023-04-16T00:58:20;27.42;;;19.92;;
42098;SDS011;27758;55.900;8.516;2023-04-16T01:00:46;30.98;;;20.20;;
42098;SDS011;27758;55.900;8.516;2023-04-16T01:03:11;30.27;;;19.77;;
42098;SDS011;27758;55.900;8.516;2023-04-16T01:05:37;27.88;;;21.30;;
42098;SDS011;27758;55.900;8.516;2023-04-16T01:08:06;28.27;;;19.13;;
42098;SDS011;27758;55.900;8.516;2023-04-16T01:10:42;29.55;;;20.98;;
42098;SDS011;27758;55.900;8.516;2023-04-16T01:13:08;33.15;;;21.20;;
42098;SDS011;27758;55.900;8.516;2023-04-16T01:15:34;33.50;;;20.85;;
42098;SDS011;27758;55.900;8.516;2023-04-16T01:17:59;26.60;;;19.33;;
42098;SDS011;27758;55.900;8.516;2023-04-16T01:20:25;29.88;;;22.25;;
42098;SDS011;27758;55.900;8.516;2023-04-16T01:22:51;26.73;;;20.23;;
42098;SDS011;27758;55.900;8.516;2023-04-16T01:25:16;26.90;;;19.25;;
42098;SDS011;27758;55.900;8.516;2023-04-16T01:27:42;25.20;;;19.20;;
42098;SDS011;27758;55.900;8.516;2023-04-16T01:30:08;32.20;;;19.83;;
42098;SDS011;27758;55.900;8.516;2023-04-16T01:32:34;26.42;;;19.38;;
42098;SDS011;27758;55.900;8.516;2023-04-16T01:35:00;31.45;;;21.45;;
42098;SDS011;27758;55.900;8.516;2023-04-16T01:37:25;33.13;;;21.25;;
42098;SDS011;27758;55.900;8.516;2023-04-16T01:39:51;28.48;;;20.92;;
42098;SDS011;27758;55.900;8.516;2023-04-16T01:42:17;30.55;;;22.45;;
42098;SDS011;27758;55.900;8.516;2023-04-16T01:44:42;32.00;;;22.63;;
42098;SDS011;27758;55.900;8.516;2023-04-16T01:47:08;31.08;;;22.05;;
42098;SDS011;27758;55.900;8.516;2023-04-16T01:49:34;33.65;;;21.70;;
42098;SDS011;27758;55.900;8.516;2023-04-16T01:52:00;33.95;;;24.45;;
42098;SDS011;27758;55.900;8.516;2023-04-16T01:54:26;31.30;;;21.92;;
42098;SDS011;27758;55.900;8.516;2023-04-16T01:56:51;28.30;;;20.63;;
42098;SDS011;27758;55.900;8.516;2023-04-16T01:59:17;32.80;;;21.83;;
42098;SDS011;27758;55.900;8.516;2023-04-16T02:01:43;31.52;;;22.35;;
42098;SDS011;27758;55.900;8.516;2023-04-16T02:04:09;31.02;;;20.83;;
42098;SDS011;27758;55.900;8.516;2023-04-16T02:06:35;33.70;;;21.02;;
42098;SDS011;27758;55.900;8.516;2023-04-16T02:09:01;35.92;;;21.65;;
42098;SDS011;27758;55.900;8.516;2023-04-16T02:11:27;29.42;;;21.88;;
42098;SDS011;27758;55.900;8.516;2023-04-16T02:13:52;31.77;;;22.02;;
42098;SDS011;27758;55.900;8.516;2023-04-16T02:16:18;28.95;;;20.27;;
42098;SDS011;27758;55.900;8.516;2023-04-16T02:18:44;29.73;;;21.15;;
42098;SDS011;27758;55.900;8.516;2023-04-16T02:21:09;28.20;;;20.70;;
42098;SDS011;27758;55.900;8.516;2023-04-16T02:23:35;34.25;;;21.30;;
42098;SDS011;27758;55.900;8.516;2023-04-16T02:26:01;28.90;;;20.80;;
42098;SDS011;27758;55.900;8.516;2023-04-16T02:28:27;27.35;;;20.58;;
42098;SDS011;27758;55.900;8.516;2023-04-16T02:30:53;31.88;;;21.65;;
42098;SDS011;27758;55.900;8.516;2023-04-16T02:33:20;31.80;;;23.08;;
42098;SDS011;27758;55.900;8.516;2023-04-16T02:35:46;31.67;;;22.48;;
42098;SDS011;27758;55.900;8.516;2023-04-16T02:38:12;31.75;;;22.65;;
42098;SDS011;27758;55.900;8.516;2023-04-16T02:40:38;30.05;;;22.60;;
42098;SDS011;27758;55.900;8.516;2023-04-16T02:43:04;30.27;;;21.88;;
42098;SDS011;27758;55.900;8.516;2023-04-16T02:45:30;29.80;;;22.20;;
42098;SDS011;27758;55.900;8.516;2023-04-16T02:47:55;33.55;;;21.92;;
42098;SDS011;27758;55.900;8.516;2023-04-16T02:50:21;33.28;;;22.83;;
42098;SDS011;27758;55.900;8.516;2023-04-16T02:52:47;31.30;;;20.98;;
42098;SDS011;27758;55.900;8.516;2023-04-16T02:55:12;33.97;;;22.88;;
42098;SDS011;27758;55.900;8.516;2023-04-16T02:57:38;28.65;;;20.65;;
42098;SDS011;27758;55.900;8.516;2023-04-16T03:00:04;31.05;;;22.27;;
42098;SDS011;27758;55.900;8.516;2023-04-16T03:02:31;31.20;;;21.73;;
42098;SDS011;27758;55.900;8.516;2023-04-16T03:04:56;31.08;;;22.23;;
42098;SDS011;27758;55.900;8.516;2023-04-16T03:07:22;33.05;;;20.10;;
42098;SDS011;27758;55.900;8.516;2023-04-16T03:09:48;32.90;;;22.33;;
42098;SDS011;27758;55.900;8.516;2023-04-16T03:12:14;29.65;;;20.75;;
42098;SDS011;27758;55.900;8.516;2023-04-16T03:14:40;29.95;;;21.80;;
42098;SDS011;27758;55.900;8.516;2023-04-16T03:17:05;31.15;;;21.38;;
42098;SDS011;27758;55.900;8.516;2023-04-16T03:19:31;30.60;;;20.90;;
42098;SDS011;27758;55.900;8.516;2023-04-16T03:21:57;35.33;;;21.05;;
42098;SDS011;27758;55.900;8.516;2023-04-16T03:24:22;34.75;;;22.35;;
42098;SDS011;27758;55.900;8.516;2023-04-16T03:26:48;33.65;;;21.13;;
42098;SDS011;27758;55.900;8.516;2023-04-16T03:29:14;30.30;;;21.40;;
42098;SDS011;27758;55.900;8.516;2023-04-16T03:31:40;28.73;;;20.52;;
42098;SDS011;27758;55.900;8.516;2023-04-16T03:34:05;41.00;;;20.90;;
42098;SDS011;27758;55.900;8.516;2023-04-16T03:36:31;30.17;;;20.42;;
42098;SDS011;27758;55.900;8.516;2023-04-16T03:38:57;29.25;;;19.17;;
42098;SDS011;27758;55.900;8.516;2023-04-16T03:41:23;28.00;;;19.98;;
42098;SDS011;27758;55.900;8.516;2023-04-16T03:43:48;31.55;;;19.17;;
42098;SDS011;27758;55.900;8.516;2023-04-16T03:46:14;31.67;;;19.25;;
42098;SDS011;27758;55.900;8.516;2023-04-16T03:48:40;30.05;;;19.80;;
42098;SDS011;27758;55.900;8.516;2023-04-16T03:51:05;36.47;;;19.77;;
42098;SDS011;27758;55.900;8.516;2023-04-16T03:53:31;31.20;;;18.85;;
42098;SDS011;27758;55.900;8.516;2023-04-16T03:55:57;31.88;;;19.83;;
42098;SDS011;27758;55.900;8.516;2023-04-16T03:58:23;29.90;;;20.13;;
42098;SDS011;27758;55.900;8.516;2023-04-16T04:00:48;31.00;;;20.23;;
42098;SDS011;27758;55.900;8.516;2023-04-16T04:03:17;31.45;;;19.98;;
42098;SDS011;27758;55.900;8.516;2023-04-16T04:05:43;38.92;;;20.50;;
42098;SDS011;27758;55.900;8.516;2023-04-16T04:08:09;34.28;;;19.83;;
42098;SDS011;27758;55.900;8.516;2023-04-16T04:10:35;31.50;;;19.20;;
42098;SDS011;27758;55.900;8.516;2023-04-16T04:13:01;31.70;;;19.20;;
42098;SDS011;27758;55.900;8.516;2023-04-16T04:15:28;29.33;;;19.33;;
42098;SDS011;27758;55.900;8.516;2023-04-16T04:17:54;30.05;;;18.35;;
42098;SDS011;27758;55.900;8.516;2023-04-16T04:20:20;31.25;;;18.67;;
42098;SDS011;27758;55.900;8.516;2023-04-16T04:22:46;30.52;;;19.20;;
42098;SDS011;27758;55.900;8.516;2023-04-16T04:25:12;28.88;;;17.70;;
42098;SDS011;27758;55.900;8.516;2023-04-16T04:27:37;28.27;;;18.25;;
42098;SDS011;27758;55.900;8.516;2023-04-16T04:30:03;33.20;;;19.52;;
42098;SDS011;27758;55.900;8.516;2023-04-16T04:32:30;33.10;;;18.48;;
42098;SDS011;27758;55.900;8.516;2023-04-16T04:34:55;28.13;;;18.65;;
42098;SDS011;27758;55.900;8.516;2023-04-16T04:37:21;33.22;;;19.50;;
42098;SDS011;27758;55.900;8.516;2023-04-16T04:39:47;32.35;;;19.00;;
42098;SDS011;27758;55.900;8.516;2023-04-16T04:42:14;26.05;;;17.65;;
42098;SDS011;27758;55.900;8.516;2023-04-16T04:44:43;29.27;;;17.40;;
42098;SDS011;27758;55.900;8.516;2023-04-16T04:47:09;29.48;;;18.15;;
42098;SDS011;27758;55.900;8.516;2023-04-16T04:49:35;24.63;;;18.10;;
42098;SDS011;27758;55.900;8.516;2023-04-16T04:52:00;27.65;;;17.63;;
42098;SDS011;27758;55.900;8.516;2023-04-16T04:54:29;32.08;;;17.48;;
42098;SDS011;27758;55.900;8.516;2023-04-16T04:56:55;27.17;;;18.73;;
42098;SDS011;27758;55.900;8.516;2023-04-16T04:59:21;28.77;;;18.73;;
42098;SDS011;27758;55.900;8.516;2023-04-16T05:01:48;30.23;;;20.50;;
42098;SDS011;27758;55.900;8.516;2023-04-16T05:04:14;33.83;;;18.70;;
42098;SDS011;27758;55.900;8.516;2023-04-16T05:06:40;31.50;;;19.60;;
42098;SDS011;27758;55.900;8.516;2023-04-16T05:09:06;26.40;;;17.83;;
42098;SDS011;27758;55.900;8.516;2023-04-16T05:11:36;30.98;;;19.17;;
42098;SDS011;27758;55.900;8.516;2023-04-16T05:14:02;25.90;;;18.23;;
42098;SDS011;27758;55.900;8.516;2023-04-16T05:16:28;30.58;;;19.02;;
42098;SDS011;27758;55.900;8.516;2023-04-16T05:18:54;31.13;;;19.60;;
42098;SDS011;27758;55.900;8.516;2023-04-16T05:21:20;34.25;;;20.08;;
42098;SDS011;27758;55.900;8.516;2023-04-16T05:23:46;32.28;;;19.73;;
42098;SDS011;27758;55.900;8.516;2023-04-16T05:26:12;31.60;;;20.33;;
42098;SDS011;27758;55.900;8.516;2023-04-16T05:28:37;30.08;;;20.80;;
42098;SDS011;27758;55.900;8.516;2023-04-16T05:31:03;27.63;;;18.67;;
42098;SDS011;27758;55.900;8.516;2023-04-16T05:33:29;32.17;;;20.15;;
42098;SDS011;27758;55.900;8.516;2023-04-16T05:35:55;29.10;;;19.30;;
42098;SDS011;27758;55.900;8.516;2023-04-16T05:38:20;27.88;;;19.60;;
42098;SDS011;27758;55.900;8.516;2023-04-16T05:40:46;30.33;;;18.92;;
42098;SDS011;27758;55.900;8.516;2023-04-16T05:43:12;28.77;;;18.77;;
42098;SDS011;27758;55.900;8.516;2023-04-16T05:45:38;29.35;;;18.63;;
42098;SDS011;27758;55.900;8.516;2023-04-16T05:48:07;29.77;;;18.50;;
42098;SDS011;27758;55.900;8.516;2023-04-16T05:50:33;26.38;;;18.77;;
42098;SDS011;27758;55.900;8.516;2023-04-16T05:53:00;26.58;;;17.90;;
42098;SDS011;27758;55.900;8.516;2023-04-16T05:55:26;32.22;;;18.95;;
42098;SDS011;27758;55.900;8.516;2023-04-16T05:57:52;30.75;;;18.08;;
42098;SDS011;27758;55.900;8.516;2023-04-16T06:00:18;28.58;;;18.77;;
42098;SDS011;27758;55.900;8.516;2023-04-16T06:02:43;25.90;;;17.92;;
42098;SDS011;27758;55.900;8.516;2023-04-16T06:05:09;29.52;;;19.15;;
42098;SDS011;27758;55.900;8.516;2023-04-16T06:07:35;28.60;;;18.55;;
42098;SDS011;27758;55.900;8.516;2023-04-16T06:10:01;34.10;;;19.00;;
42098;SDS011;27758;55.900;8.516;2023-04-16T06:12:26;31.60;;;19.50;;
42098;SDS011;27758;55.900;8.516;2023-04-16T06:14:52;28.45;;;18.65;;
42098;SDS011;27758;55.900;8.516;2023-04-16T06:17:17;29.77;;;19.08;;
42098;SDS011;27758;55.900;8.516;2023-04-16T06:19:43;30.20;;;19.13;;
42098;SDS011;27758;55.900;8.516;2023-04-16T06:22:10;31.98;;;20.13;;
42098;SDS011;27758;55.900;8.516;2023-04-16T06:24:35;24.90;;;17.48;;
42098;SDS011;27758;55.900;8.516;2023-04-16T06:27:01;28.05;;;18.95;;
42098;SDS011;27758;55.900;8.516;2023-04-16T06:29:27;26.27;;;17.88;;
42098;SDS011;27758;55.900;8.516;2023-04-16T06:31:53;27.58;;;15.98;;
42098;SDS011;27758;55.900;8.516;2023-04-16T06:34:19;31.45;;;18.63;;
42098;SDS011;27758;55.900;8.516;2023-04-16T06:36:45;29.65;;;18.15;;
42098;SDS011;27758;55.900;8.516;2023-04-16T06:39:10;25.20;;;16.92;;
42098;SDS011;27758;55.900;8.516;2023-04-16T06:41:36;26.33;;;17.92;;
42098;SDS011;27758;55.900;8.516;2023-04-16T06:44:02;25.65;;;17.50;;
42098;SDS011;27758;55.900;8.516;2023-04-16T06:46:27;30.23;;;19.65;;
42098;SDS011;27758;55.900;8.516;2023-04-16T06:48:53;28.40;;;18.17;;
42098;SDS011;27758;55.900;8.516;2023-04-16T06:51:19;31.30;;;18.90;;
42098;SDS011;27758;55.900;8.516;2023-04-16T06:53:45;29.63;;;18.70;;
42098;SDS011;27758;55.900;8.516;2023-04-16T06:56:10;30.20;;;18.25;;
42098;SDS011;27758;55.900;8.516;2023-04-16T06:58:36;25.48;;;17.50;;
42098;SDS011;27758;55.900;8.516;2023-04-16T07:01:02;27.23;;;18.17;;
42098;SDS011;27758;55.900;8.516;2023-04-16T07:03:28;30.42;;;17.45;;
42098;SDS011;27758;55.900;8.516;2023-04-16T07:05:55;25.77;;;17.48;;
42098;SDS011;27758;55.900;8.516;2023-04-16T07:08:21;26.60;;;17.52;;
42098;SDS011;27758;55.900;8.516;2023-04-16T07:10:46;31.25;;;17.63;;
42098;SDS011;27758;55.900;8.516;2023-04-16T07:13:12;25.55;;;17.02;;
42098;SDS011;27758;55.900;8.516;2023-04-16T07:15:38;30.90;;;17.88;;
42098;SDS011;27758;55.900;8.516;2023-04-16T07:18:10;22.55;;;16.67;;
42098;SDS011;27758;55.900;8.516;2023-04-16T07:20:36;24.58;;;16.55;;
42098;SDS011;27758;55.900;8.516;2023-04-16T07:23:01;25.90;;;17.02;;
42098;SDS011;27758;55.900;8.516;2023-04-16T07:25:27;25.50;;;16.58;;
42098;SDS011;27758;55.900;8.516;2023-04-16T07:27:53;27.02;;;15.73;;
42098;SDS011;27758;55.900;8.516;2023-04-16T07:30:18;26.08;;;16.70;;
42098;SDS011;27758;55.900;8.516;2023-04-16T07:32:44;25.35;;;16.67;;
42098;SDS011;27758;55.900;8.516;2023-04-16T07:35:10;23.35;;;16.25;;
42098;SDS011;27758;55.900;8.516;2023-04-16T07:37:36;25.88;;;17.40;;
42098;SDS011;27758;55.900;8.516;2023-04-16T07:40:01;25.65;;;15.73;;
42098;SDS011;27758;55.900;8.516;2023-04-16T07:42:28;24.35;;;16.05;;
42098;SDS011;27758;55.900;8.516;2023-04-16T07:44:54;23.45;;;15.48;;
42098;SDS011;27758;55.900;8.516;2023-04-16T07:47:19;24.17;;;15.98;;
42098;SDS011;27758;55.900;8.516;2023-04-16T07:49:47;19.92;;;15.02;;
42098;SDS011;27758;55.900;8.516;2023-04-16T07:52:14;23.58;;;16.25;;
42098;SDS011;27758;55.900;8.516;2023-04-16T07:54:40;23.73;;;16.42;;
42098;SDS011;27758;55.900;8.516;2023-04-16T07:57:06;24.95;;;15.80;;
42098;SDS011;27758;55.900;8.516;2023-04-16T07:59:31;21.85;;;16.15;;
42098;SDS011;27758;55.900;8.516;2023-04-16T08:01:57;27.25;;;16.73;;
42098;SDS011;27758;55.900;8.516;2023-04-16T08:04:23;25.92;;;16.25;;
42098;SDS011;27758;55.900;8.516;2023-04-16T08:06:49;24.63;;;16.08;;
42098;SDS011;27758;55.900;8.516;2023-04-16T08:09:15;21.70;;;15.13;;
42098;SDS011;27758;55.900;8.516;2023-04-16T08:11:41;24.48;;;16.35;;
42098;SDS011;27758;55.900;8.516;2023-04-16T08:14:07;23.13;;;14.82;;
42098;SDS011;27758;55.900;8.516;2023-04-16T08:16:33;24.02;;;14.55;;
42098;SDS011;27758;55.900;8.516;2023-04-16T08:18:58;23.33;;;15.98;;
42098;SDS011;27758;55.900;8.516;2023-04-16T08:21:27;25.77;;;15.63;;
42098;SDS011;27758;55.900;8.516;2023-04-16T08:23:54;21.20;;;15.13;;
42098;SDS011;27758;55.900;8.516;2023-04-16T08:26:21;22.90;;;14.32;;
42098;SDS011;27758;55.900;8.516;2023-04-16T08:28:47;23.83;;;15.23;;
42098;SDS011;27758;55.900;8.516;2023-04-16T08:31:12;21.90;;;15.25;;
42098;SDS011;27758;55.900;8.516;2023-04-16T08:33:39;19.08;;;14.32;;
42098;SDS011;27758;55.900;8.516;2023-04-16T08:36:05;24.48;;;14.82;;
42098;SDS011;27758;55.900;8.516;2023-04-16T08:38:30;22.73;;;14.13;;
42098;SDS011;27758;55.900;8.516;2023-04-16T08:40:56;19.60;;;14.00;;
42098;SDS011;27758;55.900;8.516;2023-04-16T08:43:27;23.70;;;14.68;;
42098;SDS011;27758;55.900;8.516;2023-04-16T08:48:24;20.50;;;13.68;;
42098;SDS011;27758;55.900;8.516;2023-04-16T08:50:56;22.42;;;14.27;;
42098;SDS011;27758;55.900;8.516;2023-04-16T08:53:24;19.98;;;13.93;;
42098;SDS011;27758;55.900;8.516;2023-04-16T08:55:56;20.63;;;14.40;;
42098;SDS011;27758;55.900;8.516;2023-04-16T08:58:28;22.30;;;13.68;;
42098;SDS011;27758;55.900;8.516;2023-04-16T09:00:55;18.75;;;13.90;;
42098;SDS011;27758;55.900;8.516;2023-04-16T09:03:21;17.52;;;13.20;;
42098;SDS011;27758;55.900;8.516;2023-04-16T09:05:48;16.70;;;12.35;;
42098;SDS011;27758;55.900;8.516;2023-04-16T09:08:14;19.00;;;13.07;;
42098;SDS011;27758;55.900;8.516;2023-04-16T09:10:41;20.00;;;14.00;;
42098;SDS011;27758;55.900;8.516;2023-04-16T09:13:08;21.38;;;14.23;;
42098;SDS011;27758;55.900;8.516;2023-04-16T09:15:35;18.98;;;13.18;;
42098;SDS011;27758;55.900;8.516;2023-04-16T09:18:01;17.48;;;12.32;;
42098;SDS011;27758;55.900;8.516;2023-04-16T09:20:27;17.63;;;12.30;;
42098;SDS011;27758;55.900;8.516;2023-04-16T09:22:53;20.88;;;13.15;;
42098;SDS011;27758;55.900;8.516;2023-04-16T09:25:21;17.63;;;12.57;;
42098;SDS011;27758;55.900;8.516;2023-04-16T09:27:49;19.77;;;13.50;;
42098;SDS011;27758;55.900;8.516;2023-04-16T09:32:48;19.30;;;13.32;;
42098;SDS011;27758;55.900;8.516;2023-04-16T09:35:15;16.73;;;12.32;;
42098;SDS011;27758;55.900;8.516;2023-04-16T09:37:53;17.05;;;11.93;;
42098;SDS011;27758;55.900;8.516;2023-04-16T09:40:24;20.17;;;12.45;;
42098;SDS011;27758;55.900;8.516;2023-04-16T09:42:51;21.23;;;12.13;;
42098;SDS011;27758;55.900;8.516;2023-04-16T09:45:20;16.92;;;12.13;;
42098;SDS011;27758;55.900;8.516;2023-04-16T09:47:46;16.42;;;11.45;;
42098;SDS011;27758;55.900;8.516;2023-04-16T09:50:15;18.52;;;11.63;;
42098;SDS011;27758;55.900;8.516;2023-04-16T09:52:44;16.35;;;11.27;;
42098;SDS011;27758;55.900;8.516;2023-04-16T09:57:38;15.63;;;12.00;;
42098;SDS011;27758;55.900;8.516;2023-04-16T10:00:04;15.45;;;10.32;;
42098;SDS011;27758;55.900;8.516;2023-04-16T10:02:33;15.27;;;11.38;;
42098;SDS011;27758;55.900;8.516;2023-04-16T10:05:02;16.15;;;11.65;;
42098;SDS011;27758;55.900;8.516;2023-04-16T10:07:28;15.68;;;11.27;;
42098;SDS011;27758;55.900;8.516;2023-04-16T10:09:57;14.23;;;10.68;;
42098;SDS011;27758;55.900;8.516;2023-04-16T10:12:23;14.07;;;11.00;;
42098;SDS011;27758;55.900;8.516;2023-04-16T10:14:48;14.60;;;11.35;;
42098;SDS011;27758;55.900;8.516;2023-04-16T10:17:14;14.98;;;11.18;;
42098;SDS011;27758;55.900;8.516;2023-04-16T10:19:40;17.00;;;11.38;;
42098;SDS011;27758;55.900;8.516;2023-04-16T10:22:06;14.20;;;10.52;;
42098;SDS011;27758;55.900;8.516;2023-04-16T10:24:33;15.40;;;11.20;;
42098;SDS011;27758;55.900;8.516;2023-04-16T10:26:59;18.80;;;10.70;;
42098;SDS011;27758;55.900;8.516;2023-04-16T10:29:26;13.55;;;9.68;;
42098;SDS011;27758;55.900;8.516;2023-04-16T10:31:53;14.43;;;10.52;;
42098;SDS011;27758;55.900;8.516;2023-04-16T10:34:20;15.05;;;10.57;;
42098;SDS011;27758;55.900;8.516;2023-04-16T10:36:47;16.13;;;10.50;;
42098;SDS011;27758;55.900;8.516;2023-04-16T10:39:16;16.17;;;10.93;;
42098;SDS011;27758;55.900;8.516;2023-04-16T10:41:44;18.05;;;11.32;;
42098;SDS011;27758;55.900;8.516;2023-04-16T10:44:10;16.85;;;10.32;;
42098;SDS011;27758;55.900;8.516;2023-04-16T10:46:40;13.38;;;10.93;;
42098;SDS011;27758;55.900;8.516;2023-04-16T10:49:11;15.05;;;10.85;;
42098;SDS011;27758;55.900;8.516;2023-04-16T10:54:26;13.40;;;10.20;;
42098;SDS011;27758;55.900;8.516;2023-04-16T10:56:55;13.23;;;9.95;;
42098;SDS011;27758;55.900;8.516;2023-04-16T10:59:22;21.52;;;11.10;;
42098;SDS011;27758;55.900;8.516;2023-04-16T11:01:50;16.90;;;11.02;;
42098;SDS011;27758;55.900;8.516;2023-04-16T11:12:34;14.57;;;10.23;;
42098;SDS011;27758;55.900;8.516;2023-04-16T11:15:02;12.98;;;9.20;;
42098;SDS011;27758;55.900;8.516;2023-04-16T11:20:01;16.80;;;9.75;;
42098;SDS011;27758;55.900;8.516;2023-04-16T11:22:27;14.07;;;8.85;;
42098;SDS011;27758;55.900;8.516;2023-04-16T11:24:54;13.60;;;9.45;;
42098;SDS011;27758;55.900;8.516;2023-04-16T11:27:21;16.20;;;9.43;;
42098;SDS011;27758;55.900;8.516;2023-04-16T11:29:57;14.13;;;8.95;;
42098;SDS011;27758;55.900;8.516;2023-04-16T11:32:31;12.68;;;8.73;;
42098;SDS011;27758;55.900;8.516;2023-04-16T11:34:58;11.57;;;9.10;;
42098;SDS011;27758;55.900;8.516;2023-04-16T11:37:35;12.80;;;8.68;;
42098;SDS011;27758;55.900;8.516;2023-04-16T11:40:05;16.17;;;9.45;;
42098;SDS011;27758;55.900;8.516;2023-04-16T11:42:32;11.50;;;8.15;;
42098;SDS011;27758;55.900;8.516;2023-04-16T11:45:01;13.18;;;7.93;;
42098;SDS011;27758;55.900;8.516;2023-04-16T11:47:27;12.30;;;8.25;;
42098;SDS011;27758;55.900;8.516;2023-04-16T11:49:54;12.80;;;8.68;;
42098;SDS011;27758;55.900;8.516;2023-04-16T11:52:26;13.25;;;8.63;;
42098;SDS011;27758;55.900;8.516;2023-04-16T11:54:53;12.70;;;8.80;;
42098;SDS011;27758;55.900;8.516;2023-04-16T11:57:25;13.85;;;8.70;;
42098;SDS011;27758;55.900;8.516;2023-04-16T11:59:52;10.80;;;8.43;;
42098;SDS011;27758;55.900;8.516;2023-04-16T12:02:34;13.07;;;8.70;;
42098;SDS011;27758;55.900;8.516;2023-04-16T12:05:24;10.48;;;7.82;;
42098;SDS011;27758;55.900;8.516;2023-04-16T12:07:59;17.88;;;8.32;;
42098;SDS011;27758;55.900;8.516;2023-04-16T12:10:30;12.70;;;7.85;;
42098;SDS011;27758;55.900;8.516;2023-04-16T12:15:55;12.07;;;8.18;;
42098;SDS011;27758;55.900;8.516;2023-04-16T12:18:22;10.73;;;8.20;;
42098;SDS011;27758;55.900;8.516;2023-04-16T12:20:50;12.80;;;9.20;;
42098;SDS011;27758;55.900;8.516;2023-04-16T12:23:23;16.70;;;8.75;;
42098;SDS011;27758;55.900;8.516;2023-04-16T12:25:53;10.77;;;8.70;;
42098;SDS011;27758;55.900;8.516;2023-04-16T12:28:33;10.82;;;8.52;;
42098;SDS011;27758;55.900;8.516;2023-04-16T12:31:01;12.18;;;8.00;;
42098;SDS011;27758;55.900;8.516;2023-04-16T12:33:27;12.30;;;7.75;;
42098;SDS011;27758;55.900;8.516;2023-04-16T12:35:53;12.70;;;8.30;;
42098;SDS011;27758;55.900;8.516;2023-04-16T12:38:19;13.55;;;9.00;;
42098;SDS011;27758;55.900;8.516;2023-04-16T12:40:45;12.75;;;8.07;;
42098;SDS011;27758;55.900;8.516;2023-04-16T12:43:10;12.60;;;8.50;;
42098;SDS011;27758;55.900;8.516;2023-04-16T12:45:38;11.05;;;8.07;;
42098;SDS011;27758;55.900;8.516;2023-04-16T12:48:04;13.48;;;8.50;;
42098;SDS011;27758;55.900;8.516;2023-04-16T12:50:30;11.48;;;8.40;;
42098;SDS011;27758;55.900;8.516;2023-04-16T12:52:56;13.52;;;9.25;;
42098;SDS011;27758;55.900;8.516;2023-04-16T12:55:23;15.18;;;8.75;;
42098;SDS011;27758;55.900;8.516;2023-04-16T12:57:49;10.85;;;7.88;;
42098;SDS011;27758;55.900;8.516;2023-04-16T13:00:19;16.45;;;9.57;;
42098;SDS011;27758;55.900;8.516;2023-04-16T13:02:44;12.23;;;8.45;;
42098;SDS011;27758;55.900;8.516;2023-04-16T13:05:10;13.05;;;8.25;;
42098;SDS011;27758;55.900;8.516;2023-04-16T13:07:37;13.00;;;8.10;;
42098;SDS011;27758;55.900;8.516;2023-04-16T13:10:03;12.23;;;8.27;;
42098;SDS011;27758;55.900;8.516;2023-04-16T13:12:30;10.50;;;7.93;;
42098;SDS011;27758;55.900;8.516;2023-04-16T13:14:56;11.98;;;8.52;;
42098;SDS011;27758;55.900;8.516;2023-04-16T13:17:22;10.20;;;8.07;;
42098;SDS011;27758;55.900;8.516;2023-04-16T13:19:48;10.15;;;8.20;;
42098;SDS011;27758;55.900;8.516;2023-04-16T13:22:13;10.15;;;7.60;;
42098;SDS011;27758;55.900;8.516;2023-04-16T13:24:39;11.32;;;7.28;;
42098;SDS011;27758;55.900;8.516;2023-04-16T13:27:05;10.32;;;8.05;;
42098;SDS011;27758;55.900;8.516;2023-04-16T13:29:32;13.48;;;7.78;;
42098;SDS011;27758;55.900;8.516;2023-04-16T13:32:00;11.68;;;8.07;;
42098;SDS011;27758;55.900;8.516;2023-04-16T13:34:26;12.90;;;8.52;;
42098;SDS011;27758;55.900;8.516;2023-04-16T13:36:55;11.00;;;8.25;;
42098;SDS011;27758;55.900;8.516;2023-04-16T13:39:20;10.95;;;7.78;;
42098;SDS011;27758;55.900;8.516;2023-04-16T13:41:46;13.32;;;9.07;;
42098;SDS011;27758;55.900;8.516;2023-04-16T13:44:13;9.50;;;7.38;;
42098;SDS011;27758;55.900;8.516;2023-04-16T13:46:39;19.95;;;9.40;;
42098;SDS011;27758;55.900;8.516;2023-04-16T13:49:04;12.70;;;8.07;;
42098;SDS011;27758;55.900;8.516;2023-04-16T13:51:30;13.13;;;9.18;;
42098;SDS011;27758;55.900;8.516;2023-04-16T13:53:56;11.57;;;8.07;;
42098;SDS011;27758;55.900;8.516;2023-04-16T13:56:22;10.98;;;8.50;;
42098;SDS011;27758;55.900;8.516;2023-04-16T13:58:48;12.50;;;7.60;;
42098;SDS011;27758;55.900;8.516;2023-04-16T14:01:14;15.18;;;8.85;;
42098;SDS011;27758;55.900;8.516;2023-04-16T14:03:41;12.77;;;8.57;;
42098;SDS011;27758;55.900;8.516;2023-04-16T14:06:07;10.55;;;7.50;;
42098;SDS011;27758;55.900;8.516;2023-04-16T14:08:32;11.15;;;7.55;;
42098;SDS011;27758;55.900;8.516;2023-04-16T14:10:58;11.25;;;8.10;;
42098;SDS011;27758;55.900;8.516;2023-04-16T14:13:25;10.32;;;7.75;;
42098;SDS011;27758;55.900;8.516;2023-04-16T14:15:54;11.00;;;7.47;;
42098;SDS011;27758;55.900;8.516;2023-04-16T14:18:19;11.88;;;7.88;;
42098;SDS011;27758;55.900;8.516;2023-04-16T14:20:46;12.15;;;7.78;;
42098;SDS011;27758;55.900;8.516;2023-04-16T14:23:12;12.40;;;7.82;;
42098;SDS011;27758;55.900;8.516;2023-04-16T14:25:38;12.32;;;8.05;;
42098;SDS011;27758;55.900;8.516;2023-04-16T14:28:04;11.27;;;7.57;;
42098;SDS011;27758;55.900;8.516;2023-04-16T14:30:29;13.48;;;8.55;;
42098;SDS011;27758;55.900;8.516;2023-04-16T14:33:04;10.43;;;8.13;;
42098;SDS011;27758;55.900;8.516;2023-04-16T14:35:31;12.60;;;7.90;;
42098;SDS011;27758;55.900;8.516;2023-04-16T14:37:58;12.10;;;8.57;;
42098;SDS011;27758;55.900;8.516;2023-04-16T14:40:28;10.63;;;8.15;;
42098;SDS011;27758;55.900;8.516;2023-04-16T14:42:54;10.07;;;7.95;;
42098;SDS011;27758;55.900;8.516;2023-04-16T14:45:19;10.90;;;7.95;;
42098;SDS011;27758;55.900;8.516;2023-04-16T14:47:45;10.88;;;7.78;;